Terminal Aerodrome Forecast
Issued by NWS Paducah, KY

Home | Current Version | Previous Version | Graphics & Text | Print | Product List | Glossary On
Versions: 1 2 3 4 5 6 7 8 9 10 11 12 13 14 15 16
507
FTUS43 KPAH 252156 AAA
TAFPAH
TAF AMD
KPAH 252156Z 2522/2618 17012G21KT P6SM VCSH SCT025 BKN050
      TEMPO 2522/2524 BKN025
     FM260000 17006KT P6SM BKN060
     FM260600 22005KT P6SM SCT030 BKN070=

USA.gov is the U.S. government's official web portal to all federal, state and local government web resources and services.